createdAt,value
2019-02-14T00:01:01.275Z,87.75
2019-02-14T00:03:31.026Z,88.28
2019-02-14T00:06:00.982Z,88.28
2019-02-14T00:08:30.636Z,88.12
2019-02-14T00:11:00.462Z,88.18
2019-02-14T00:13:30.359Z,88.20
2019-02-14T00:16:00.133Z,88.17
2019-02-14T00:18:30.050Z,88.16
2019-02-14T00:20:59.867Z,88.18
2019-02-14T00:23:29.646Z,88.18
2019-02-14T00:25:59.664Z,88.19
2019-02-14T00:28:29.759Z,88.26
2019-02-14T00:30:59.483Z,88.26
2019-02-14T00:33:29.331Z,88.29
2019-02-14T00:35:59.296Z,88.51
2019-02-14T00:38:28.926Z,88.15
2019-02-14T00:40:59.320Z,88.15
2019-02-14T00:43:29.014Z,88.49
2019-02-14T00:45:58.804Z,88.54
2019-02-14T00:48:29.618Z,88.57
2019-02-14T00:50:59.221Z,88.58
2019-02-14T00:53:28.793Z,88.65
2019-02-14T00:55:58.790Z,88.69
2019-02-14T00:58:28.404Z,88.53
2019-02-14T01:00:58.104Z,88.58
2019-02-14T01:03:28.050Z,88.61
2019-02-14T01:05:57.679Z,88.62
2019-02-14T01:08:27.449Z,88.70
2019-02-14T01:10:57.514Z,88.71
2019-02-14T01:13:27.170Z,88.80
2019-02-14T01:15:56.899Z,88.87
2019-02-14T01:18:26.563Z,88.87
2019-02-14T01:20:56.186Z,88.84
2019-02-14T01:23:25.967Z,88.86
2019-02-14T01:25:55.703Z,88.83
2019-02-14T01:28:25.428Z,89.21
2019-02-14T01:30:55.082Z,89.21
2019-02-14T01:33:25.648Z,88.91
2019-02-14T01:35:55.422Z,88.93
2019-02-14T01:38:25.094Z,89.10
2019-02-14T01:40:54.928Z,89.10
2019-02-14T01:43:24.843Z,89.05
2019-02-14T01:45:54.570Z,89.34
2019-02-14T01:48:24.328Z,89.34
2019-02-14T01:50:54.296Z,89.18
2019-02-14T01:53:23.983Z,89.20
2019-02-14T01:55:53.703Z,89.34
2019-02-14T01:58:24.033Z,89.44
2019-02-14T02:00:54.008Z,89.38
2019-02-14T02:03:23.703Z,89.47
2019-02-14T02:05:53.597Z,89.41
2019-02-14T02:08:23.401Z,89.35
2019-02-14T02:10:53.250Z,89.43
2019-02-14T02:13:23.148Z,89.43
2019-02-14T02:15:52.898Z,89.31
2019-02-14T02:18:22.751Z,89.33
2019-02-14T02:20:52.734Z,89.46
2019-02-14T02:23:22.681Z,89.48
2019-02-14T02:25:52.278Z,89.51
2019-02-14T02:28:22.109Z,89.59
2019-02-14T02:30:51.861Z,89.54
2019-02-14T02:33:22.675Z,89.56
2019-02-14T02:36:00.179Z,89.50
2019-02-14T02:38:23.883Z,89.53
2019-02-14T02:40:53.854Z,89.49
2019-02-14T02:43:23.614Z,89.54
2019-02-14T02:45:53.591Z,89.54
2019-02-14T02:48:23.599Z,89.34
2019-02-14T02:50:53.419Z,89.34
2019-02-14T02:53:23.213Z,89.55
2019-02-14T02:55:52.963Z,89.49
2019-02-14T02:58:22.775Z,89.43
2019-02-14T03:00:52.849Z,89.37
2019-02-14T03:03:22.924Z,89.37
2019-02-14T03:05:52.591Z,89.47
2019-02-14T03:08:22.449Z,89.46
2019-02-14T03:10:54.104Z,89.44
2019-02-14T03:13:23.970Z,89.33
2019-02-14T03:15:54.099Z,89.42
2019-02-14T03:18:23.891Z,89.43
2019-02-14T03:20:53.469Z,89.43
2019-02-14T03:23:23.506Z,89.31
2019-02-14T03:25:53.339Z,89.41
2019-02-14T03:28:23.308Z,89.24
2019-02-14T03:30:53.561Z,89.32
2019-02-14T03:33:23.514Z,89.40
2019-02-14T03:35:53.369Z,89.42
2019-02-14T03:38:23.430Z,89.83
2019-02-14T03:40:53.395Z,89.83
2019-02-14T03:43:25.786Z,89.25
2019-02-14T03:45:55.611Z,89.25
2019-02-14T03:48:25.284Z,89.37
2019-02-14T03:50:55.082Z,89.48
2019-02-14T03:53:24.733Z,89.42
2019-02-14T03:55:54.646Z,89.52
2019-02-14T03:58:24.538Z,89.55
2019-02-14T04:00:54.294Z,89.61
2019-02-14T04:03:23.940Z,89.49
2019-02-14T04:05:53.734Z,89.55
2019-02-14T04:08:23.767Z,89.49
2019-02-14T04:10:53.620Z,89.58
2019-02-14T04:13:23.673Z,89.65
2019-02-14T04:15:53.667Z,89.76
2019-02-14T04:18:23.502Z,89.71
2019-02-14T04:20:53.593Z,89.74
2019-02-14T04:23:23.585Z,89.75
2019-02-14T04:25:53.425Z,89.76
2019-02-14T04:28:23.344Z,89.76
2019-02-14T04:30:53.360Z,89.73
2019-02-14T04:33:25.823Z,89.72
2019-02-14T04:35:55.535Z,89.73
2019-02-14T04:38:25.214Z,89.69
2019-02-14T04:40:55.010Z,89.72
2019-02-14T04:43:25.032Z,89.74
2019-02-14T04:45:54.776Z,89.68
2019-02-14T04:48:24.607Z,89.68
2019-02-14T04:50:54.219Z,89.31
2019-02-14T04:53:23.934Z,89.31
2019-02-14T04:55:53.822Z,89.46
2019-02-14T04:58:23.644Z,89.45
2019-02-14T05:00:53.490Z,89.39
2019-02-14T05:03:23.593Z,89.35
2019-02-14T05:05:53.428Z,89.34
2019-02-14T05:08:23.284Z,89.28
2019-02-14T05:10:53.327Z,89.16
2019-02-14T05:13:23.318Z,89.16
2019-02-14T05:15:53.147Z,89.13
2019-02-14T05:18:24.089Z,89.04
2019-02-14T05:20:53.836Z,89.11
2019-02-14T05:23:24.606Z,88.88
2019-02-14T05:25:54.546Z,88.88
2019-02-14T05:28:24.402Z,88.90
2019-02-14T05:30:54.126Z,88.93
2019-02-14T05:33:24.057Z,88.95
2019-02-14T05:35:54.032Z,88.92
2019-02-14T05:38:23.794Z,88.89
2019-02-14T05:40:53.818Z,88.87
2019-02-14T05:43:23.564Z,88.88
2019-02-14T05:45:53.505Z,88.93
2019-02-14T05:48:23.549Z,88.92
2019-02-14T05:50:53.793Z,89.11
2019-02-14T05:53:23.668Z,89.11
2019-02-14T05:55:53.587Z,88.80
2019-02-14T05:58:23.669Z,88.92
2019-02-14T06:00:53.546Z,88.96
2019-02-14T06:03:23.355Z,88.98
2019-02-14T06:05:53.332Z,88.91
2019-02-14T06:08:23.416Z,88.91
2019-02-14T06:10:53.265Z,88.86
2019-02-14T06:13:23.128Z,89.09
2019-02-14T06:15:53.225Z,88.85
2019-02-14T06:18:23.356Z,88.94
2019-02-14T06:20:53.255Z,89.06
2019-02-14T06:23:23.305Z,89.06
2019-02-14T06:25:53.167Z,88.88
2019-02-14T06:28:23.315Z,88.94
2019-02-14T06:30:55.412Z,88.91
2019-02-14T06:33:25.420Z,88.84
2019-02-14T06:35:55.147Z,88.79
2019-02-14T06:38:24.911Z,88.62
2019-02-14T06:40:54.812Z,88.48
2019-02-14T06:43:25.190Z,88.53
2019-02-14T06:45:54.703Z,88.22
2019-02-14T06:48:24.517Z,88.22
2019-02-14T06:50:54.169Z,88.55
2019-02-14T06:53:25.239Z,88.30
2019-02-14T06:55:54.826Z,88.30
2019-02-14T06:58:24.419Z,88.34
2019-02-14T07:00:54.193Z,88.37
2019-02-14T07:03:23.855Z,88.37
2019-02-14T07:05:53.528Z,88.36
2019-02-14T07:08:23.580Z,88.37
2019-02-14T07:10:53.454Z,88.21
2019-02-14T07:13:23.184Z,88.15
2019-02-14T07:15:53.388Z,88.17
2019-02-14T07:18:23.312Z,88.22
2019-02-14T07:20:53.095Z,88.21
2019-02-14T07:23:23.178Z,88.11
2019-02-14T07:25:53.258Z,88.11
2019-02-14T07:28:23.227Z,87.98
2019-02-14T07:30:53.159Z,87.71
2019-02-14T07:33:22.847Z,87.71
2019-02-14T07:35:52.683Z,87.83
2019-02-14T07:38:22.703Z,87.62
2019-02-14T07:40:52.661Z,87.66
2019-02-14T07:43:22.613Z,87.64
2019-02-14T07:45:52.799Z,87.75
2019-02-14T07:48:22.491Z,87.82
2019-02-14T07:50:52.342Z,87.86
2019-02-14T07:53:22.358Z,87.71
2019-02-14T07:55:52.382Z,87.81
2019-02-14T07:58:22.151Z,87.83
2019-02-14T08:00:52.324Z,87.85
2019-02-14T08:03:22.291Z,87.84
2019-02-14T08:05:52.126Z,87.79
2019-02-14T08:08:22.266Z,87.67
2019-02-14T08:10:52.395Z,87.77
2019-02-14T08:13:22.230Z,87.67
2019-02-14T08:15:52.025Z,87.70
2019-02-14T08:18:21.779Z,87.58
2019-02-14T08:20:51.461Z,87.66
2019-02-14T08:23:21.384Z,87.71
2019-02-14T08:25:51.187Z,87.66
2019-02-14T08:28:20.906Z,87.69
2019-02-14T08:30:50.488Z,87.70
2019-02-14T08:33:20.289Z,87.75
2019-02-14T08:35:50.159Z,87.70
2019-02-14T08:38:20.124Z,87.60
2019-02-14T08:40:50.041Z,87.62
2019-02-14T08:43:20.043Z,87.76
2019-02-14T08:45:49.958Z,87.76
2019-02-14T08:48:19.985Z,87.63
2019-02-14T08:50:49.827Z,87.44
2019-02-14T08:53:19.449Z,87.36
2019-02-14T08:55:49.323Z,87.33
2019-02-14T08:58:19.285Z,87.33
2019-02-14T09:00:48.893Z,87.26
2019-02-14T09:03:18.818Z,87.26
2019-02-14T09:05:48.496Z,87.30
2019-02-14T09:08:18.120Z,87.25
2019-02-14T09:10:47.887Z,87.25
2019-02-14T09:13:17.654Z,87.27
2019-02-14T09:15:47.190Z,87.02
2019-02-14T09:18:17.036Z,87.08
2019-02-14T09:20:46.615Z,87.11
2019-02-14T09:23:16.226Z,87.02
2019-02-14T09:25:45.918Z,86.89
2019-02-14T09:28:15.446Z,86.89
2019-02-14T09:30:45.070Z,86.96
2019-02-14T09:33:14.875Z,86.71
2019-02-14T09:35:44.481Z,86.64
2019-02-14T09:38:14.232Z,86.73
2019-02-14T09:40:44.055Z,86.46
2019-02-14T09:43:13.778Z,86.55
2019-02-14T09:45:43.687Z,86.67
2019-02-14T09:48:14.129Z,86.60
2019-02-14T09:50:43.732Z,86.48
2019-02-14T09:53:13.415Z,86.41
2019-02-14T09:55:43.169Z,86.34
2019-02-14T09:58:12.778Z,86.24
2019-02-14T10:00:42.792Z,86.29
2019-02-14T10:03:12.517Z,86.45
2019-02-14T10:05:42.138Z,86.45
2019-02-14T10:08:13.075Z,86.31
2019-02-14T10:10:43.203Z,86.15
2019-02-14T10:13:12.903Z,86.02
2019-02-14T10:15:42.562Z,85.76
2019-02-14T10:18:12.058Z,85.94
2019-02-14T10:20:41.722Z,85.90
2019-02-14T10:23:11.501Z,85.89
2019-02-14T10:25:41.187Z,85.71
2019-02-14T10:28:10.789Z,85.52
2019-02-14T10:30:40.688Z,85.41
2019-02-14T10:33:10.337Z,85.32
2019-02-14T10:35:40.079Z,85.32
2019-02-14T10:38:09.883Z,85.33
2019-02-14T10:40:39.434Z,85.42
2019-02-14T10:43:09.078Z,85.24
2019-02-14T10:45:38.835Z,85.21
2019-02-14T10:48:08.622Z,85.19
2019-02-14T10:50:38.273Z,85.12
2019-02-14T10:53:08.028Z,84.60
2019-02-14T10:55:37.732Z,84.60
2019-02-14T10:58:07.418Z,84.54
2019-02-14T11:00:37.401Z,84.62
2019-02-14T11:03:07.279Z,84.46
2019-02-14T11:05:36.898Z,84.38
2019-02-14T11:08:06.863Z,84.24
2019-02-14T11:10:36.529Z,84.31
2019-02-14T11:13:06.244Z,83.79
2019-02-14T11:15:36.142Z,83.84
2019-02-14T11:18:05.754Z,83.92
2019-02-14T11:20:35.581Z,83.49
2019-02-14T11:23:05.509Z,83.42
2019-02-14T11:25:35.405Z,83.01
2019-02-14T11:28:05.231Z,83.18
2019-02-14T11:30:35.115Z,82.90
2019-02-14T11:33:04.844Z,82.71
2019-02-14T11:35:34.667Z,82.59
2019-02-14T11:38:04.495Z,82.48
2019-02-14T11:40:34.078Z,82.48
2019-02-14T11:43:03.824Z,82.34
2019-02-14T11:45:33.603Z,82.87
2019-02-14T11:48:03.337Z,82.87
2019-02-14T11:50:32.948Z,82.74
2019-02-14T11:53:02.966Z,82.83
2019-02-14T11:55:32.838Z,83.02
2019-02-14T11:58:03.355Z,83.05
2019-02-14T12:00:33.078Z,83.11
2019-02-14T12:03:02.703Z,83.20
2019-02-14T12:05:32.521Z,83.20
2019-02-14T12:08:02.581Z,83.11
2019-02-14T12:10:32.215Z,83.13
2019-02-14T12:13:02.032Z,83.06
2019-02-14T12:15:31.786Z,83.06
2019-02-14T12:18:01.559Z,83.19
2019-02-14T12:20:31.165Z,83.15
2019-02-14T12:23:00.984Z,83.31
2019-02-14T12:25:30.858Z,83.35
2019-02-14T12:28:00.584Z,83.61
2019-02-14T12:30:30.578Z,83.61
2019-02-14T12:33:00.316Z,83.51
2019-02-14T12:35:29.883Z,83.43
2019-02-14T12:37:59.731Z,83.55
2019-02-14T12:40:29.473Z,83.55
2019-02-14T12:42:59.190Z,83.54
2019-02-14T12:45:29.071Z,83.37
2019-02-14T12:47:58.727Z,83.51
2019-02-14T12:50:28.297Z,83.33
2019-02-14T12:52:58.222Z,83.61
2019-02-14T12:55:28.010Z,83.46
2019-02-14T12:57:57.581Z,83.21
2019-02-14T13:00:27.376Z,83.20
2019-02-14T13:02:57.308Z,83.52
2019-02-14T13:05:27.056Z,83.52
2019-02-14T13:07:56.704Z,82.87
2019-02-14T13:10:26.501Z,83.27
2019-02-14T13:12:56.358Z,83.30
2019-02-14T13:15:26.007Z,83.17
2019-02-14T13:17:56.102Z,83.17
2019-02-14T13:20:25.972Z,83.43
2019-02-14T13:22:55.693Z,83.31
2019-02-14T13:25:25.738Z,83.13
2019-02-14T13:27:55.766Z,83.35
2019-02-14T13:30:25.627Z,83.53
2019-02-14T13:32:55.577Z,83.41
2019-02-14T13:35:25.461Z,83.40
2019-02-14T13:37:55.561Z,83.69
2019-02-14T13:40:25.507Z,83.65
2019-02-14T13:42:55.688Z,83.41
2019-02-14T13:45:25.728Z,83.41
2019-02-14T13:47:55.662Z,83.40
2019-02-14T13:50:25.438Z,83.42
2019-02-14T13:52:55.342Z,83.27
2019-02-14T13:55:25.517Z,83.34
2019-02-14T13:57:55.623Z,83.34
2019-02-14T14:00:26.916Z,83.67
2019-02-14T14:02:56.742Z,83.73
2019-02-14T14:05:26.617Z,83.73
2019-02-14T14:07:56.575Z,83.76
2019-02-14T14:10:26.618Z,83.73
2019-02-14T14:12:56.761Z,83.92
2019-02-14T14:15:26.522Z,84.25
2019-02-14T14:17:56.483Z,84.25
2019-02-14T14:20:26.532Z,84.14
2019-02-14T14:22:56.407Z,83.82
2019-02-14T14:25:26.225Z,83.93
2019-02-14T14:27:56.428Z,83.93
2019-02-14T14:30:26.532Z,83.79
2019-02-14T14:32:56.295Z,83.97
2019-02-14T14:35:26.390Z,84.13
2019-02-14T14:37:56.212Z,84.13
2019-02-14T14:40:26.750Z,83.92
2019-02-14T14:43:18.979Z,84.09
2019-02-14T14:46:02.303Z,83.89
2019-02-14T14:48:42.572Z,84.17
2019-02-14T14:51:12.745Z,84.22
2019-02-14T14:53:42.409Z,84.40
2019-02-14T14:56:12.221Z,84.44
2019-02-14T14:58:42.005Z,84.47
2019-02-14T15:01:11.834Z,84.52
2019-02-14T15:03:41.710Z,84.54
2019-02-14T15:06:11.412Z,84.57
2019-02-14T15:08:41.051Z,84.72
2019-02-14T15:11:10.920Z,84.80
2019-02-14T15:13:40.755Z,85.00
2019-02-14T15:16:10.561Z,85.21
2019-02-14T15:18:40.372Z,85.06
2019-02-14T15:21:10.064Z,85.30
2019-02-14T15:23:39.701Z,85.29
2019-02-14T15:26:09.529Z,85.31
2019-02-14T15:28:39.220Z,85.65
2019-02-14T15:31:08.886Z,85.65
2019-02-14T15:33:38.697Z,85.82
2019-02-14T15:36:08.352Z,85.82
2019-02-14T15:38:37.973Z,85.74
2019-02-14T15:41:07.783Z,85.85
2019-02-14T15:43:37.418Z,85.79
2019-02-14T15:46:07.041Z,85.72
2019-02-14T15:48:36.795Z,85.72
2019-02-14T15:51:06.626Z,85.82
2019-02-14T15:53:36.216Z,85.59
2019-02-14T15:56:07.825Z,85.59
2019-02-14T15:58:37.529Z,85.64
2019-02-14T16:01:07.512Z,85.93
2019-02-14T16:03:38.556Z,85.93
2019-02-14T16:06:08.907Z,85.69
2019-02-14T16:08:38.626Z,85.47
2019-02-14T16:11:10.146Z,85.51
2019-02-14T16:13:40.047Z,85.64
2019-02-14T16:16:09.740Z,85.67
2019-02-14T16:18:39.506Z,85.65
2019-02-14T16:21:09.419Z,85.71
2019-02-14T16:23:39.144Z,85.75
2019-02-14T16:26:08.807Z,85.84
2019-02-14T16:28:39.852Z,85.84
2019-02-14T16:31:09.525Z,85.93
2019-02-14T16:33:39.383Z,85.99
2019-02-14T16:36:08.961Z,85.94
2019-02-14T16:38:38.683Z,85.91
2019-02-14T16:41:08.448Z,85.99
2019-02-14T16:43:38.276Z,86.03
2019-02-14T16:46:08.001Z,85.58
2019-02-14T16:48:37.917Z,85.94
2019-02-14T16:51:07.641Z,85.94
2019-02-14T16:53:37.276Z,85.94
2019-02-14T16:56:07.113Z,85.73
2019-02-14T16:58:36.755Z,85.82
2019-02-14T17:01:06.637Z,85.72
2019-02-14T17:03:36.450Z,85.74
2019-02-14T17:06:06.131Z,85.64
2019-02-14T17:08:35.925Z,85.64
2019-02-14T17:11:05.760Z,85.60
2019-02-14T17:13:35.418Z,85.61
2019-02-14T17:16:05.014Z,85.61
2019-02-14T17:18:34.841Z,85.58
2019-02-14T17:21:04.837Z,85.62
2019-02-14T17:23:34.525Z,85.49
2019-02-14T17:26:04.436Z,85.43
2019-02-14T17:28:34.197Z,85.49
2019-02-14T17:31:03.888Z,85.54
2019-02-14T17:33:33.715Z,85.19
2019-02-14T17:36:03.603Z,85.19
2019-02-14T17:38:33.279Z,85.49
2019-02-14T17:41:03.251Z,85.37
2019-02-14T17:43:33.021Z,85.35
2019-02-14T17:46:02.795Z,85.40
2019-02-14T17:48:32.721Z,85.35
2019-02-14T17:51:02.683Z,85.44
2019-02-14T17:53:32.567Z,85.40
2019-02-14T17:56:02.491Z,85.30
2019-02-14T17:58:32.136Z,85.39
2019-02-14T18:01:01.895Z,85.34
2019-02-14T18:03:31.873Z,85.33
2019-02-14T18:06:01.609Z,85.32
2019-02-14T18:08:31.639Z,85.22
2019-02-14T18:11:01.448Z,85.35
2019-02-14T18:13:31.171Z,85.25
2019-02-14T18:16:00.932Z,85.30
2019-02-14T18:18:30.787Z,85.14
2019-02-14T18:21:00.577Z,85.17
2019-02-14T18:23:30.223Z,85.09
2019-02-14T18:25:59.994Z,85.11
2019-02-14T18:28:29.683Z,85.33
2019-02-14T18:30:59.444Z,85.33
2019-02-14T18:33:29.334Z,85.24
2019-02-14T18:35:58.991Z,85.25
2019-02-14T18:38:30.302Z,85.36
2019-02-14T18:41:04.233Z,85.36
2019-02-14T18:43:31.861Z,84.98
2019-02-14T18:46:01.792Z,85.06
2019-02-14T18:48:31.486Z,85.14
2019-02-14T18:51:01.418Z,85.19
2019-02-14T18:53:31.287Z,85.23
2019-02-14T18:56:01.212Z,85.31
2019-02-14T18:58:30.911Z,85.23
2019-02-14T19:01:00.753Z,85.16
2019-02-14T19:03:30.468Z,85.05
2019-02-14T19:06:00.273Z,85.23
2019-02-14T19:08:30.134Z,85.27
2019-02-14T19:10:59.926Z,85.35
2019-02-14T19:13:29.585Z,85.36
2019-02-14T19:15:59.646Z,85.33
2019-02-14T19:18:29.303Z,85.33
2019-02-14T19:20:59.097Z,85.22
2019-02-14T19:23:29.022Z,85.11
2019-02-14T19:25:58.601Z,85.11
2019-02-14T19:28:28.205Z,85.33
2019-02-14T19:30:57.934Z,85.25
2019-02-14T19:33:27.626Z,85.05
2019-02-14T19:35:57.569Z,85.09
2019-02-14T19:38:27.390Z,85.12
2019-02-14T19:40:57.032Z,85.12
2019-02-14T19:43:26.941Z,85.12
2019-02-14T19:45:56.745Z,85.03
2019-02-14T19:48:26.515Z,85.02
2019-02-14T19:50:56.541Z,85.02
2019-02-14T19:53:26.619Z,84.93
2019-02-14T19:55:56.567Z,84.84
2019-02-14T19:58:26.660Z,85.06
2019-02-14T20:00:59.535Z,85.22
2019-02-14T20:03:29.162Z,85.22
2019-02-14T20:05:58.701Z,85.20
2019-02-14T20:08:28.714Z,85.29
2019-02-14T20:10:58.311Z,85.24
2019-02-14T20:13:27.980Z,85.19
2019-02-14T20:15:57.949Z,85.16
2019-02-14T20:18:27.668Z,85.12
2019-02-14T20:20:57.318Z,85.20
2019-02-14T20:23:27.109Z,85.18
2019-02-14T20:25:56.796Z,85.13
2019-02-14T20:28:26.685Z,85.15
2019-02-14T20:30:56.486Z,85.21
2019-02-14T20:33:26.504Z,85.15
2019-02-14T20:35:56.471Z,85.32
2019-02-14T20:38:26.250Z,85.35
2019-02-14T20:40:56.308Z,85.31
2019-02-14T20:43:26.493Z,85.37
2019-02-14T20:45:56.390Z,85.35
2019-02-14T20:48:26.412Z,85.46
2019-02-14T20:50:56.604Z,85.44
2019-02-14T20:53:26.688Z,85.44
2019-02-14T20:55:56.540Z,85.43
2019-02-14T20:58:26.607Z,85.47
2019-02-14T21:00:56.660Z,85.45
2019-02-14T21:03:26.663Z,85.53
2019-02-14T21:05:56.674Z,85.49
2019-02-14T21:08:26.542Z,85.57
2019-02-14T21:10:56.627Z,85.82
2019-02-14T21:13:26.833Z,85.76
2019-02-14T21:15:56.943Z,85.81
2019-02-14T21:18:26.690Z,85.82
2019-02-14T21:20:56.748Z,85.77
2019-02-14T21:23:26.669Z,85.86
2019-02-14T21:25:57.404Z,85.86
2019-02-14T21:28:27.009Z,85.90
2019-02-14T21:30:56.867Z,85.84
2019-02-14T21:33:26.719Z,86.00
2019-02-14T21:35:56.723Z,85.95
2019-02-14T21:38:26.751Z,85.99
2019-02-14T21:41:00.870Z,85.78
2019-02-14T21:43:30.693Z,85.78
2019-02-14T21:46:00.601Z,86.11
2019-02-14T21:48:30.635Z,86.10
2019-02-14T21:51:01.308Z,86.10
2019-02-14T21:53:31.230Z,86.00
2019-02-14T21:56:00.891Z,86.01
2019-02-14T21:58:30.750Z,85.82
2019-02-14T22:01:01.065Z,85.82
2019-02-14T22:03:30.878Z,86.11
2019-02-14T22:06:00.648Z,86.25
2019-02-14T22:08:30.611Z,86.30
2019-02-14T22:11:00.571Z,86.27
2019-02-14T22:13:31.056Z,86.27
2019-02-14T22:16:00.871Z,86.37
2019-02-14T22:18:30.579Z,86.53
2019-02-14T22:21:00.426Z,86.50
2019-02-14T22:23:30.206Z,86.70
2019-02-14T22:25:59.885Z,86.57
2019-02-14T22:28:29.747Z,86.51
2019-02-14T22:30:59.563Z,86.61
2019-02-14T22:33:29.240Z,86.68
2019-02-14T22:35:59.310Z,86.58
2019-02-14T22:38:29.217Z,86.61
2019-02-14T22:40:59.004Z,86.48
2019-02-14T22:43:29.045Z,86.93
2019-02-14T22:45:58.787Z,86.36
2019-02-14T22:48:28.708Z,86.36
2019-02-14T22:50:58.705Z,86.72
2019-02-14T22:53:28.346Z,86.78
2019-02-14T22:55:57.932Z,87.00
2019-02-14T22:58:27.901Z,87.00
2019-02-14T23:01:00.193Z,86.73
2019-02-14T23:03:30.303Z,86.98
2019-02-14T23:06:00.151Z,87.21
2019-02-14T23:08:29.965Z,87.32
2019-02-14T23:10:59.831Z,87.32
2019-02-14T23:13:29.549Z,87.42
2019-02-14T23:15:59.173Z,87.46
2019-02-14T23:18:29.429Z,87.48
2019-02-14T23:20:59.137Z,87.56
2019-02-14T23:23:28.740Z,87.61
2019-02-14T23:25:58.413Z,87.79
2019-02-14T23:28:28.127Z,87.84
2019-02-14T23:30:57.859Z,87.83
2019-02-14T23:33:27.679Z,87.83
2019-02-14T23:35:57.367Z,88.00
2019-02-14T23:38:27.104Z,88.01
2019-02-14T23:40:57.035Z,88.05
2019-02-14T23:43:26.830Z,87.95
2019-02-14T23:45:56.631Z,88.01
2019-02-14T23:48:26.571Z,87.92
2019-02-14T23:50:56.413Z,88.05
2019-02-14T23:53:26.291Z,88.05
2019-02-14T23:55:56.401Z,88.03
2019-02-14T23:58:26.268Z,88.03
